This is the latest recevied weather packets stored in our database for station/object KO6TH-15. If no packets are shown the sender has not sent any weather packets the latest 1 day(s).
| Time | Temp. | Humidity | Pressure | Rain* | Wind** | Luminosity | Snow |
|---|---|---|---|---|---|---|---|
| 1778006270 | 15.56° C | 81% | 0 hPa | 0 mm | 0.89 m/s, 0° | - | - |
| 1778005670 | 15.56° C | 81% | 0 hPa | 0 mm | 0 m/s | - | - |
| 1778005040 | 16.11° C | 75% | 0 hPa | 0 mm | 1.34 m/s, 0° | - | - |
| 1778004410 | 16.11° C | 76% | 0 hPa | 0 mm | 0 m/s | - | - |
| 1778003810 | 17.22° C | 71% | 0 hPa | 0 mm | 0.89 m/s, 0° | - | - |
| 1778003180 | 17.22° C | 71% | 0 hPa | 0 mm | 0.89 m/s, 0° | - | - |
| 1778002550 | 16.11° C | 79% | 0 hPa | 0 mm | 1.34 m/s, 0° | - | - |
| 1778001950 | 15.56° C | 79% | 0 hPa | 0 mm | 0.45 m/s, 0° | - | - |
| 1778001350 | 14.44° C | 85% | 0 hPa | 0 mm | 0.89 m/s, 0° | - | - |
| 1778000720 | 13.33° C | 89% | 0 hPa | 0 mm | 0.45 m/s, 0° | - | - |
| 1778000090 | 13.33° C | 92% | 0 hPa | 0 mm | 0 m/s | - | - |
| 1777999460 | 12.78° C | 93% | 0 hPa | 0 mm | 0.89 m/s, 0° | - | - |
| 1777998860 | 11.67° C | 97% | 0 hPa | 0 mm | 0 m/s | - | - |
| 1777998260 | 11.67° C | 96% | 0 hPa | 0 mm | 1.79 m/s, 0° | - | - |
| 1777997630 | 11.11° C | 98% | 0 hPa | 106.43 mm | 0.89 m/s, 0° | - | - |
| 1777997000 | 11.11° C | 99% | 0 hPa | 106.43 mm | 0.89 m/s, 0° | - | - |
| 1777996370 | 10.56° C | 99% | 0 hPa | 106.43 mm | 0.45 m/s, 0° | - | - |
| 1777995740 | 10.56° C | 99% | 0 hPa | 106.43 mm | 0.89 m/s, 0° | - | - |
| 1777995140 | 10.56° C | 99% | 0 hPa | 106.43 mm | 0 m/s | - | - |
| 1777994540 | 10° C | 99% | 0 hPa | 106.43 mm | 0.45 m/s, 0° | - | - |
| 1777993910 | 10° C | 99% | 0 hPa | 0 mm | 0 m/s | - | - |
| 1777993280 | 10° C | 99% | 0 hPa | 0 mm | 0 m/s | - | - |
| 1777992650 | 10° C | 99% | 0 hPa | 0 mm | 0 m/s | - | - |
| 1777992050 | 10° C | 99% | 0 hPa | 0 mm | 0 m/s | - | - |
| 1777991420 | 10° C | 99% | 0 hPa | 0 mm | 0 m/s | - | - |
* Rain latest hour (hover to see other rain measurements)
** Current wind speed in m/s (hover to see current wind gust speed)